createdAt,value
2019-05-17T00:00:47.329Z,10.34
2019-05-17T00:03:17.028Z,10.49
2019-05-17T00:05:46.485Z,10.53
2019-05-17T00:08:13.000Z,10.42
2019-05-17T00:10:39.775Z,10.22
2019-05-17T00:13:09.346Z,10.33
2019-05-17T00:15:37.908Z,10.16
2019-05-17T00:18:06.759Z,10.47
2019-05-17T00:20:33.318Z,10.22
2019-05-17T00:22:59.905Z,10.25
2019-05-17T00:25:27.390Z,10.37
2019-05-17T00:27:56.284Z,10.65
2019-05-17T00:30:22.638Z,10.46
2019-05-17T00:32:49.400Z,10.57
2019-05-17T00:35:17.889Z,10.23
2019-05-17T00:37:46.536Z,10.30
2019-05-17T00:40:13.563Z,10.24
2019-05-17T00:42:40.161Z,10.27
2019-05-17T00:45:07.153Z,10.31
2019-05-17T00:47:37.432Z,10.34
2019-05-17T00:50:04.531Z,10.41
2019-05-17T00:52:31.276Z,10.20
2019-05-17T00:54:57.933Z,10.41
2019-05-17T00:57:24.609Z,10.30
2019-05-17T00:59:53.102Z,10.56
2019-05-17T01:02:19.692Z,10.16
2019-05-17T01:04:47.719Z,10.25
2019-05-17T01:07:14.870Z,10.52
2019-05-17T01:09:41.492Z,10.56
2019-05-17T01:12:08.108Z,10.31
2019-05-17T01:14:37.189Z,10.61
2019-05-17T01:17:06.991Z,10.39
2019-05-17T01:19:33.250Z,10.72
2019-05-17T01:22:01.594Z,10.49
2019-05-17T01:24:28.659Z,10.58
2019-05-17T01:26:57.349Z,10.22
2019-05-17T01:29:23.994Z,10.51
2019-05-17T01:31:51.314Z,10.77
2019-05-17T01:34:18.002Z,10.87
2019-05-17T01:36:46.431Z,10.28
2019-05-17T01:39:17.884Z,10.36
2019-05-17T01:41:41.832Z,10.45
2019-05-17T01:44:08.443Z,10.67
2019-05-17T01:46:36.969Z,10.48
2019-05-17T01:49:04.069Z,10.73
2019-05-17T01:51:30.783Z,10.70
2019-05-17T01:53:57.512Z,10.68
2019-05-17T01:56:26.355Z,10.58
2019-05-17T01:58:53.078Z,10.75
2019-05-17T02:01:19.716Z,10.73
2019-05-17T02:03:47.019Z,10.75
2019-05-17T02:06:16.572Z,10.67
2019-05-17T02:08:43.246Z,10.81
2019-05-17T02:11:09.848Z,10.48
2019-05-17T02:13:37.596Z,10.45
2019-05-17T02:16:06.992Z,10.74
2019-05-17T02:18:33.384Z,10.57
2019-05-17T02:21:00.331Z,10.77
2019-05-17T02:23:27.243Z,10.84
2019-05-17T02:25:54.059Z,10.85
2019-05-17T02:28:21.493Z,10.51
2019-05-17T02:30:48.742Z,10.33
2019-05-17T02:33:15.521Z,10.60
2019-05-17T02:35:43.026Z,10.63
2019-05-17T02:38:13.001Z,10.77
2019-05-17T02:40:42.796Z,10.81
2019-05-17T02:43:08.167Z,10.63
2019-05-17T02:45:35.265Z,10.68
2019-05-17T02:48:03.602Z,10.78
2019-05-17T02:50:33.120Z,10.55
2019-05-17T02:52:59.237Z,10.76
2019-05-17T02:55:25.908Z,10.99
2019-05-17T02:57:53.049Z,10.86
2019-05-17T03:00:23.651Z,10.90
2019-05-17T03:02:48.545Z,10.56
2019-05-17T03:05:15.436Z,10.73
2019-05-17T03:07:43.752Z,10.64
2019-05-17T03:10:22.109Z,10.73
2019-05-17T03:12:43.899Z,10.42
2019-05-17T03:15:12.662Z,10.48
2019-05-17T03:17:38.270Z,10.54
2019-05-17T03:20:06.329Z,10.48
2019-05-17T03:22:33.444Z,10.48
2019-05-17T03:25:13.841Z,10.60
2019-05-17T03:27:44.373Z,10.78
2019-05-17T03:30:17.967Z,10.94
2019-05-17T03:32:48.577Z,10.82
2019-05-17T03:35:18.303Z,10.89
2019-05-17T03:37:46.925Z,10.57
2019-05-17T03:40:35.015Z,10.54
2019-05-17T03:42:49.036Z,10.39
2019-05-17T03:45:18.199Z,10.40
2019-05-17T03:47:48.547Z,10.44
2019-05-17T03:50:17.649Z,10.59
2019-05-17T03:52:47.155Z,10.72
2019-05-17T03:55:17.972Z,10.68
2019-05-17T03:57:47.347Z,10.87
2019-05-17T04:00:17.067Z,10.66
2019-05-17T04:02:45.344Z,10.60
2019-05-17T04:05:13.271Z,10.84
2019-05-17T04:07:43.359Z,10.79
2019-05-17T04:10:09.158Z,10.99
2019-05-17T04:12:35.766Z,10.28
2019-05-17T04:15:03.612Z,10.60
2019-05-17T04:17:32.787Z,10.72
2019-05-17T04:20:02.945Z,11.01
2019-05-17T04:22:27.728Z,10.60
2019-05-17T04:24:54.362Z,10.75
2019-05-17T04:27:22.948Z,10.53
2019-05-17T04:29:53.022Z,10.63
2019-05-17T04:32:18.379Z,10.86
2019-05-17T04:34:45.537Z,10.49
2019-05-17T04:37:13.072Z,10.65
2019-05-17T04:39:42.934Z,10.80
2019-05-17T04:42:08.499Z,10.61
2019-05-17T04:44:35.249Z,10.91
2019-05-17T04:47:03.120Z,10.79
2019-05-17T04:49:32.933Z,10.89
2019-05-17T04:51:59.056Z,10.65
2019-05-17T04:54:26.436Z,11.07
2019-05-17T04:56:54.137Z,10.79
2019-05-17T04:59:24.059Z,11.12
2019-05-17T05:01:49.490Z,11.09
2019-05-17T05:04:16.202Z,10.70
2019-05-17T05:06:43.740Z,10.77
2019-05-17T05:09:12.680Z,10.71
2019-05-17T05:11:51.869Z,10.80
2019-05-17T05:14:07.787Z,11.00
2019-05-17T05:16:34.496Z,10.94
2019-05-17T05:19:02.904Z,10.98
2019-05-17T05:21:32.191Z,11.12
2019-05-17T05:23:58.315Z,11.07
2019-05-17T05:26:24.920Z,10.97
2019-05-17T05:28:52.917Z,11.26
2019-05-17T05:31:22.778Z,11.34
2019-05-17T05:33:52.251Z,11.48
2019-05-17T05:36:21.702Z,11.30
2019-05-17T05:38:48.233Z,11.29
2019-05-17T05:41:15.368Z,11.63
2019-05-17T05:43:42.366Z,11.79
2019-05-17T05:46:11.530Z,11.97
2019-05-17T05:48:37.635Z,11.82
2019-05-17T05:51:05.876Z,11.52
2019-05-17T05:53:32.724Z,11.41
2019-05-17T05:56:03.079Z,11.46
2019-05-17T05:58:29.426Z,11.65
2019-05-17T06:00:58.390Z,11.88
2019-05-17T06:03:25.983Z,11.66
2019-05-17T06:05:53.195Z,11.36
2019-05-17T06:08:22.573Z,11.43
2019-05-17T06:10:48.751Z,11.69
2019-05-17T06:13:15.523Z,12.19
2019-05-17T06:15:42.878Z,11.61
2019-05-17T06:18:12.164Z,11.51
2019-05-17T06:20:38.931Z,11.73
2019-05-17T06:23:05.722Z,11.82
2019-05-17T06:25:34.291Z,11.84
2019-05-17T06:28:01.736Z,11.78
2019-05-17T06:30:28.506Z,11.60
2019-05-17T06:32:55.332Z,11.90
2019-05-17T06:35:22.032Z,11.90
2019-05-17T06:37:48.752Z,11.96
2019-05-17T06:40:15.623Z,11.86
2019-05-17T06:42:45.436Z,12.01
2019-05-17T06:45:12.474Z,11.75
2019-05-17T06:47:42.565Z,11.85
2019-05-17T06:50:10.121Z,11.69
2019-05-17T06:52:36.797Z,11.90
2019-05-17T06:55:05.925Z,11.88
2019-05-17T06:57:33.083Z,12.10
2019-05-17T07:00:02.445Z,12.24
2019-05-17T07:02:30.842Z,12.35
2019-05-17T07:05:01.616Z,12.40
2019-05-17T07:07:30.559Z,12.51
2019-05-17T07:10:00.384Z,12.44
2019-05-17T07:12:27.130Z,12.38
2019-05-17T07:14:53.834Z,12.49
2019-05-17T07:17:20.575Z,12.73
2019-05-17T07:19:50.582Z,12.89
2019-05-17T07:22:16.876Z,12.56
2019-05-17T07:24:47.183Z,12.56
2019-05-17T07:27:15.469Z,12.71
2019-05-17T07:29:42.393Z,12.77
2019-05-17T07:32:09.786Z,12.54
2019-05-17T07:34:36.515Z,12.76
2019-05-17T07:37:03.315Z,12.34
2019-05-17T07:39:30.429Z,12.58
2019-05-17T07:41:57.115Z,12.33
2019-05-17T07:44:23.818Z,13.09
2019-05-17T07:46:51.856Z,12.70
2019-05-17T07:49:20.025Z,13.19
2019-05-17T07:51:47.028Z,13.11
2019-05-17T07:54:13.803Z,13.80
2019-05-17T07:56:40.715Z,13.75
2019-05-17T07:59:09.513Z,13.15
2019-05-17T08:01:37.708Z,13.15
2019-05-17T08:04:04.478Z,13.02
2019-05-17T08:06:31.231Z,13.17
2019-05-17T08:09:03.342Z,13.45
2019-05-17T08:11:26.761Z,13.96
2019-05-17T08:13:53.607Z,14.11
2019-05-17T08:16:20.353Z,14.29
2019-05-17T08:18:49.534Z,14.02
2019-05-17T08:21:15.850Z,13.61
2019-05-17T08:23:45.707Z,13.57
2019-05-17T08:26:12.424Z,13.91
2019-05-17T08:28:40.423Z,13.97
2019-05-17T08:31:09.906Z,13.75
2019-05-17T08:33:36.419Z,13.75
2019-05-17T08:36:03.182Z,13.71
2019-05-17T08:38:30.533Z,13.82
2019-05-17T08:41:00.380Z,14.01
2019-05-17T08:43:38.406Z,14.12
2019-05-17T08:45:54.974Z,14.04
2019-05-17T08:48:22.119Z,14.56
2019-05-17T08:50:49.957Z,14.87
2019-05-17T08:53:16.686Z,14.21
2019-05-17T08:55:43.393Z,14.36
2019-05-17T08:58:10.597Z,14.33
2019-05-17T09:00:40.157Z,14.24
2019-05-17T09:03:05.979Z,14.50
2019-05-17T09:05:32.575Z,14.60
2019-05-17T09:08:00.113Z,14.94
2019-05-17T09:10:29.814Z,14.47
2019-05-17T09:12:55.929Z,14.38
2019-05-17T09:15:22.567Z,14.78
2019-05-17T09:17:50.137Z,15.40
2019-05-17T09:20:17.245Z,16.73
2019-05-17T09:22:44.228Z,18.60
2019-05-17T09:25:15.796Z,17.87
2019-05-17T09:27:40.038Z,16.62
2019-05-17T09:30:09.330Z,15.80
2019-05-17T09:32:35.908Z,17.01
2019-05-17T09:35:02.734Z,17.40
2019-05-17T09:37:30.293Z,17.96
2019-05-17T09:39:59.824Z,17.82
2019-05-17T09:42:26.878Z,18.09
2019-05-17T09:44:53.670Z,17.60
2019-05-17T09:47:20.810Z,16.91
2019-05-17T09:49:50.006Z,16.34
2019-05-17T09:52:16.233Z,16.58
2019-05-17T09:54:45.430Z,16.76
2019-05-17T09:57:11.585Z,16.83
2019-05-17T09:59:40.439Z,16.87
2019-05-17T10:02:09.400Z,17.02
2019-05-17T10:04:35.604Z,17.14
2019-05-17T10:07:05.494Z,18.85
2019-05-17T10:09:32.447Z,17.59
2019-05-17T10:12:00.017Z,17.20
2019-05-17T10:14:31.357Z,16.85
2019-05-17T10:17:00.294Z,17.54
2019-05-17T10:19:29.031Z,17.90
2019-05-17T10:21:56.005Z,17.91
2019-05-17T10:24:34.942Z,17.23
2019-05-17T10:26:51.452Z,19.48
2019-05-17T10:29:18.376Z,21.49
2019-05-17T10:31:45.167Z,21.52
2019-05-17T10:34:11.785Z,20.93
2019-05-17T10:36:40.136Z,21.08
2019-05-17T10:39:07.044Z,19.70
2019-05-17T10:41:33.810Z,18.86
2019-05-17T10:44:02.970Z,19.12
2019-05-17T10:46:30.123Z,21.51
2019-05-17T10:48:57.039Z,23.21
2019-05-17T10:51:24.131Z,23.26
2019-05-17T10:53:51.459Z,23.27
2019-05-17T10:56:19.868Z,23.51
2019-05-17T10:58:54.713Z,24.05
2019-05-17T11:01:23.518Z,20.39
2019-05-17T11:04:12.251Z,22.83
2019-05-17T11:06:53.403Z,25.44
2019-05-17T11:09:20.746Z,26.01
2019-05-17T11:11:50.238Z,25.51
2019-05-17T11:14:20.688Z,25.08
2019-05-17T11:16:49.139Z,26.13
2019-05-17T11:19:16.652Z,24.47
2019-05-17T11:21:43.369Z,23.60
2019-05-17T11:24:10.148Z,20.98
2019-05-17T11:26:37.347Z,20.87
2019-05-17T11:29:04.609Z,21.66
2019-05-17T11:31:34.809Z,21.46
2019-05-17T11:34:01.588Z,22.06
2019-05-17T11:36:43.645Z,23.62
2019-05-17T11:39:16.705Z,22.49
2019-05-17T11:41:43.981Z,20.63
2019-05-17T11:44:11.071Z,21.31
2019-05-17T11:46:37.788Z,20.36
2019-05-17T11:49:04.504Z,23.24
2019-05-17T11:51:31.582Z,24.96
2019-05-17T11:53:58.294Z,24.85
2019-05-17T11:56:25.097Z,22.99
2019-05-17T11:58:51.882Z,25.84
2019-05-17T12:01:18.615Z,26.93
2019-05-17T12:03:45.673Z,26.27
2019-05-17T12:06:13.045Z,26.49
2019-05-17T12:08:40.852Z,26.65
2019-05-17T12:11:07.868Z,25.03
2019-05-17T12:13:35.086Z,24.27
2019-05-17T12:16:01.708Z,25.61
2019-05-17T12:18:28.333Z,24.31
2019-05-17T12:20:55.173Z,22.75
2019-05-17T12:23:22.473Z,22.50
2019-05-17T12:25:49.477Z,22.74
2019-05-17T12:28:16.242Z,21.36
2019-05-17T12:30:43.870Z,21.79
2019-05-17T12:33:10.529Z,22.01
2019-05-17T12:35:48.164Z,20.98
2019-05-17T12:38:15.027Z,20.72
2019-05-17T12:40:41.809Z,20.84
2019-05-17T12:43:08.991Z,20.46
2019-05-17T12:45:35.736Z,20.76
2019-05-17T12:48:02.637Z,19.48
2019-05-17T12:50:29.334Z,20.14
2019-05-17T12:52:55.978Z,20.41
2019-05-17T12:55:22.623Z,19.82
2019-05-17T12:57:50.109Z,20.11
2019-05-17T13:00:18.139Z,19.13
2019-05-17T13:02:44.812Z,19.10
2019-05-17T13:05:11.962Z,19.69
2019-05-17T13:07:40.602Z,19.67
2019-05-17T13:10:07.664Z,20.09
2019-05-17T13:12:36.829Z,19.68
2019-05-17T13:15:04.180Z,19.61
2019-05-17T13:17:31.030Z,19.80
2019-05-17T13:20:01.890Z,19.50
2019-05-17T13:22:30.029Z,19.22
2019-05-17T13:24:57.020Z,19.70
2019-05-17T13:27:23.849Z,19.44
2019-05-17T13:29:50.569Z,19.62
2019-05-17T13:32:18.161Z,20.57
2019-05-17T13:34:47.255Z,21.16
2019-05-17T13:37:14.589Z,20.38
2019-05-17T13:39:41.333Z,19.65
2019-05-17T13:42:08.222Z,19.57
2019-05-17T13:44:34.907Z,19.57
2019-05-17T13:47:01.628Z,19.19
2019-05-17T13:49:28.372Z,19.49
2019-05-17T13:51:57.036Z,18.87
2019-05-17T13:54:23.707Z,18.54
2019-05-17T13:56:50.474Z,19.09
2019-05-17T13:59:17.743Z,19.07
2019-05-17T14:01:44.615Z,18.85
2019-05-17T14:04:11.916Z,20.17
2019-05-17T14:06:38.542Z,20.57
2019-05-17T14:09:05.446Z,21.26
2019-05-17T14:11:32.489Z,21.34
2019-05-17T14:13:59.165Z,21.12
2019-05-17T14:16:25.922Z,20.44
2019-05-17T14:18:52.710Z,19.01
2019-05-17T14:21:19.396Z,19.12
2019-05-17T14:23:46.009Z,19.33
2019-05-17T14:26:12.674Z,19.94
2019-05-17T14:28:39.262Z,20.55
2019-05-17T14:31:06.986Z,20.99
2019-05-17T14:33:33.724Z,21.39
2019-05-17T14:36:00.315Z,20.86
2019-05-17T14:38:27.185Z,20.83
2019-05-17T14:41:06.445Z,20.74
2019-05-17T14:43:22.801Z,20.75
2019-05-17T14:45:49.572Z,20.64
2019-05-17T14:48:16.313Z,20.93
2019-05-17T14:50:43.154Z,20.66
2019-05-17T14:53:09.994Z,20.81
2019-05-17T14:55:37.744Z,21.00
2019-05-17T14:58:04.671Z,21.14
2019-05-17T15:00:31.468Z,21.27
2019-05-17T15:02:58.414Z,21.09
2019-05-17T15:05:25.036Z,20.54
2019-05-17T15:07:51.669Z,20.72
2019-05-17T15:10:18.720Z,19.84
2019-05-17T15:12:45.366Z,19.91
2019-05-17T15:15:12.529Z,20.49
2019-05-17T15:17:48.248Z,21.00
2019-05-17T15:20:15.043Z,20.99
2019-05-17T15:22:42.251Z,20.73
2019-05-17T15:25:09.386Z,20.93
2019-05-17T15:27:36.365Z,20.12
2019-05-17T15:30:04.233Z,19.88
2019-05-17T15:32:31.020Z,19.81
2019-05-17T15:34:58.253Z,20.11
2019-05-17T15:37:24.914Z,19.96
2019-05-17T15:39:51.659Z,19.69
2019-05-17T15:42:21.327Z,19.27
2019-05-17T15:44:48.853Z,19.35
2019-05-17T15:47:15.798Z,19.01
2019-05-17T15:49:42.510Z,19.29
2019-05-17T15:52:09.262Z,19.40
2019-05-17T15:54:35.899Z,19.05
2019-05-17T15:57:02.508Z,19.71
2019-05-17T15:59:29.268Z,20.15
2019-05-17T16:01:55.961Z,19.62
2019-05-17T16:04:22.700Z,19.21
2019-05-17T16:06:49.436Z,19.86
2019-05-17T16:09:16.229Z,19.42
2019-05-17T16:11:42.927Z,20.13
2019-05-17T16:14:09.691Z,20.60
2019-05-17T16:16:37.241Z,20.05
2019-05-17T16:19:03.925Z,20.15
2019-05-17T16:21:30.595Z,20.24
2019-05-17T16:23:57.212Z,20.40
2019-05-17T16:26:23.871Z,20.19
2019-05-17T16:28:50.946Z,20.22
2019-05-17T16:31:17.562Z,20.35
2019-05-17T16:33:45.201Z,20.12
2019-05-17T16:36:12.215Z,19.77
2019-05-17T16:38:42.034Z,19.18
2019-05-17T16:41:08.711Z,18.85
2019-05-17T16:43:35.674Z,18.51
2019-05-17T16:46:05.489Z,18.76
2019-05-17T16:48:32.466Z,18.66
2019-05-17T16:50:59.272Z,18.58
2019-05-17T16:53:26.015Z,18.33
2019-05-17T16:55:52.724Z,18.12
2019-05-17T16:58:19.745Z,18.14
2019-05-17T17:00:47.376Z,17.85
2019-05-17T17:03:14.358Z,17.70
2019-05-17T17:05:41.404Z,18.34
2019-05-17T17:08:08.186Z,17.80
2019-05-17T17:10:37.286Z,17.58
2019-05-17T17:13:04.690Z,17.59
2019-05-17T17:15:31.837Z,17.49
2019-05-17T17:17:59.846Z,17.58
2019-05-17T17:20:26.606Z,17.64
2019-05-17T17:22:53.221Z,17.34
2019-05-17T17:25:19.864Z,17.15
2019-05-17T17:27:47.330Z,17.10
2019-05-17T17:30:14.857Z,16.91
2019-05-17T17:32:41.600Z,16.58
2019-05-17T17:35:12.102Z,16.94
2019-05-17T17:37:40.686Z,16.47
2019-05-17T17:40:08.080Z,16.44
2019-05-17T17:42:35.863Z,16.74
2019-05-17T17:45:03.272Z,16.23
2019-05-17T17:47:30.291Z,16.23
2019-05-17T17:49:57.307Z,16.39
2019-05-17T17:52:25.620Z,17.05
2019-05-17T17:54:53.064Z,16.88
2019-05-17T17:57:19.824Z,16.66
2019-05-17T17:59:48.119Z,15.91
2019-05-17T18:02:16.369Z,15.78
2019-05-17T18:04:43.467Z,16.18
2019-05-17T18:07:16.739Z,16.29
2019-05-17T18:09:44.367Z,16.81
2019-05-17T18:12:11.081Z,16.38
2019-05-17T18:14:38.035Z,16.89
2019-05-17T18:17:04.936Z,16.52
2019-05-17T18:19:33.687Z,16.43
2019-05-17T18:22:00.430Z,15.86
2019-05-17T18:24:27.036Z,16.11
2019-05-17T18:26:53.737Z,15.97
2019-05-17T18:29:20.689Z,15.63
2019-05-17T18:31:47.772Z,15.27
2019-05-17T18:34:14.835Z,15.40
2019-05-17T18:36:41.516Z,15.22
2019-05-17T18:39:08.318Z,15.39
2019-05-17T18:41:36.918Z,15.12
2019-05-17T18:44:03.798Z,15.21
2019-05-17T18:46:30.821Z,15.25
2019-05-17T18:48:57.520Z,15.52
2019-05-17T18:51:24.247Z,15.20
2019-05-17T18:53:52.229Z,14.44
2019-05-17T18:56:18.965Z,14.71
2019-05-17T18:58:45.988Z,15.02
2019-05-17T19:01:12.654Z,14.65
2019-05-17T19:03:39.311Z,14.79
2019-05-17T19:06:07.737Z,14.56
2019-05-17T19:08:34.673Z,14.42
2019-05-17T19:11:01.600Z,14.79
2019-05-17T19:13:28.416Z,14.79
2019-05-17T19:15:55.125Z,14.78
2019-05-17T19:18:21.858Z,14.46
2019-05-17T19:20:48.479Z,14.46
2019-05-17T19:23:15.241Z,14.55
2019-05-17T19:25:42.149Z,14.68
2019-05-17T19:28:08.751Z,14.69
2019-05-17T19:30:35.555Z,14.75
2019-05-17T19:33:02.268Z,14.77
2019-05-17T19:35:28.863Z,15.03
2019-05-17T19:37:55.668Z,15.01
2019-05-17T19:40:22.239Z,14.80
2019-05-17T19:42:49.095Z,14.62
2019-05-17T19:45:16.146Z,14.32
2019-05-17T19:47:42.841Z,14.37
2019-05-17T19:50:09.871Z,13.74
2019-05-17T19:52:36.646Z,13.91
2019-05-17T19:55:03.696Z,13.83
2019-05-17T19:57:30.326Z,14.14
2019-05-17T19:59:57.055Z,13.67
2019-05-17T20:02:23.826Z,13.55
2019-05-17T20:04:50.550Z,13.82
2019-05-17T20:07:17.236Z,13.59
2019-05-17T20:09:45.216Z,13.28
2019-05-17T20:12:11.841Z,13.33
2019-05-17T20:14:39.699Z,13.38
2019-05-17T20:17:06.462Z,13.32
2019-05-17T20:19:34.551Z,13.30
2019-05-17T20:22:01.318Z,13.64
2019-05-17T20:24:28.046Z,13.50
2019-05-17T20:26:55.057Z,12.94
2019-05-17T20:29:24.925Z,13.40
2019-05-17T20:31:51.608Z,13.50
2019-05-17T20:34:18.392Z,13.10
2019-05-17T20:36:45.182Z,13.08
2019-05-17T20:39:12.224Z,13.26
2019-05-17T20:41:39.228Z,12.83
2019-05-17T20:44:06.582Z,13.32
2019-05-17T20:46:33.583Z,13.17
2019-05-17T20:49:00.286Z,12.70
2019-05-17T20:51:26.894Z,13.02
2019-05-17T20:53:53.505Z,13.17
2019-05-17T20:56:32.677Z,13.04
2019-05-17T20:58:50.286Z,13.25
2019-05-17T21:01:16.889Z,13.05
2019-05-17T21:03:43.745Z,13.05
2019-05-17T21:06:10.637Z,12.80
2019-05-17T21:08:45.783Z,12.99
2019-05-17T21:11:07.913Z,12.83
2019-05-17T21:13:34.687Z,12.81
2019-05-17T21:16:01.453Z,13.10
2019-05-17T21:18:28.107Z,13.11
2019-05-17T21:20:54.799Z,13.29
2019-05-17T21:23:24.469Z,12.94
2019-05-17T21:25:51.143Z,12.94
2019-05-17T21:28:17.783Z,12.79
2019-05-17T21:30:44.389Z,13.08
2019-05-17T21:33:12.546Z,12.79
2019-05-17T21:35:39.310Z,12.64
2019-05-17T21:38:06.187Z,12.80
2019-05-17T21:40:33.780Z,12.60
2019-05-17T21:43:00.457Z,12.88
2019-05-17T21:45:27.098Z,12.70
2019-05-17T21:47:53.762Z,12.55
2019-05-17T21:50:20.484Z,12.88
2019-05-17T21:52:47.181Z,12.97
2019-05-17T21:55:14.519Z,12.93
2019-05-17T21:57:41.110Z,12.83
2019-05-17T22:00:09.975Z,13.08
2019-05-17T22:02:38.473Z,13.11
2019-05-17T22:05:05.295Z,12.99
2019-05-17T22:07:32.260Z,12.76
2019-05-17T22:09:58.920Z,13.33
2019-05-17T22:12:25.806Z,13.17
2019-05-17T22:14:52.483Z,13.12
2019-05-17T22:17:19.123Z,13.04
2019-05-17T22:19:45.776Z,12.74
2019-05-17T22:22:12.401Z,13.15
2019-05-17T22:24:39.036Z,13.12
2019-05-17T22:27:05.790Z,13.29
2019-05-17T22:29:32.828Z,12.95
2019-05-17T22:31:59.628Z,12.59
2019-05-17T22:34:26.298Z,12.77
2019-05-17T22:36:52.936Z,12.34
2019-05-17T22:39:19.551Z,12.58
2019-05-17T22:41:46.296Z,12.40
2019-05-17T22:44:12.891Z,12.49
2019-05-17T22:46:39.457Z,12.83
2019-05-17T22:49:06.141Z,12.64
2019-05-17T22:51:32.776Z,12.65
2019-05-17T22:53:59.472Z,12.49
2019-05-17T22:56:26.151Z,12.98
2019-05-17T22:58:53.057Z,12.53
2019-05-17T23:01:19.692Z,12.61
2019-05-17T23:03:47.620Z,12.56
2019-05-17T23:06:14.555Z,12.66
2019-05-17T23:08:41.409Z,12.69
2019-05-17T23:11:08.124Z,12.48
2019-05-17T23:13:34.705Z,12.45
2019-05-17T23:16:02.111Z,12.66
2019-05-17T23:18:30.516Z,12.77
2019-05-17T23:20:57.598Z,12.45
2019-05-17T23:23:24.400Z,12.24
2019-05-17T23:25:51.033Z,12.30
2019-05-17T23:28:17.755Z,12.19
2019-05-17T23:30:44.342Z,12.50
2019-05-17T23:33:11.297Z,12.30
2019-05-17T23:35:38.111Z,12.44
2019-05-17T23:38:04.727Z,12.68
2019-05-17T23:40:31.328Z,12.35
2019-05-17T23:42:58.309Z,12.59
2019-05-17T23:45:24.957Z,12.29
2019-05-17T23:47:51.549Z,12.09
2019-05-17T23:50:18.231Z,12.51
2019-05-17T23:52:44.867Z,12.66
2019-05-17T23:55:11.557Z,12.51
2019-05-17T23:57:38.231Z,12.40
